Forside
METAR-TAF:

METAR-TAF

Lufthavne :

Tjita, Rusland

Breddekreds: 52-05N, længdekreds: 113-29E, højde: 685 m

Aktuelle vejr

Denne rapport blev lavet for 33 minutter siden, kl. 17:00 UTC
Vind 4 kt fra sydsydvest, varierende mellem syd og vest
Temperatur -2°C
Fugtighed 50%
Tryk 1004 hPa
Sigt 10 km eller mere

METAR: UIAA 231700Z AUTO 21002MPS 170V270 9999 NCD M02/M11 Q1004 RMK QFE695/0927

Tid: 02:33 (17:33 UTC)

Vejrudsigter

Denne rapport blev lavet for 3 timer og 33 minutter siden, kl. 14:00 UTC
Foreløbig gælder fra 23 på 15 UTC til 24 på 15 UTC
Vind 12 kt fra nordvest med vindstød på up til 23 kt
Sigt 10 km eller mere
Spredte skyer i en højde af 4000 ft, Cumulonimbus.
Midlertidig
fra 23 på 15 UTC til 24 på 03 UTC
Vind 6 kt fra sydvest

TAF: UIAA 231400Z 2315/2415 31006G12MPS 9999 SCT040CB TEMPO 2315/2403 22003MPS

Vejrobservationer og prognoser fra mere end 4000 lufthavne (METAR og TAF).

De gule og røde prikker repræsenterer de meteorologiske stationer.

Flyt musen over at se navnet på stationen.

Så klik over at se vejr observationer og prognoser.

At skifte det kort: Klik på de grønne knapper med et sort kors for at zoome ind; på den grønne knap med en bindestreg for at zoome ud; eller på de grønne pile for tilstødende kort.


METAR-TAF: